9VA2 weather

Inova Alexandria Hospital Heliport
Alexandria, Virginia, United States

Public forecast

Using degrees Fahrenheit for public forecast. Weather courtesy of forecast.io.

METAR (pilot weather report)

Closest report is Ronald Reagan Washington National Airport, 3.6 nm (6.6 km) ENE. Retrieved 2019/05/25 05:52 UTC (29 minutes ago):

KDCA 250552Z 00000KT 10SM BKN090 21/13 A3010 RMK AO2 SLP193 T02110128 10256 20206 53001

TAF (pilot weather forecast)

Closest forecast is Ronald Reagan Washington National Airport, 3.6 nm (6.6 km) ENE. Retrieved 2019/05/25 06:00 UTC (21 minutes ago):

TAF KDCA 250559Z 2506/2612 04004KT P6SM SCT080 BKN200 FM251500 15007KT P6SM FEW045 SCT200 FM252000 16010G20KT P6SM SCT040 BKN200 FM260500 19006KT P6SM SCT025 BKN200 FM260900 24005KT P6SM FEW025 SCT200